Time;durP1;ratioP1;P1;durP2;ratioP2;P2;SDS_P1;SDS_P2;PMS_P1;PMS_P2;Temp;Humidity;BMP_temperature;BMP_pressure;BME280_temperature;BME280_humidity;BME280_pressure;Samples;Min_cycle;Max_cycle;Signal;HPM_P1;HPM_P2
2022/01/25 00:37:23;;;;;;;17.02;10.02;;;3.00;99.90;;;;;;6743960;88;20205;-76
2022/01/25 00:47:25;;;;;;;20.35;10.50;;;3.00;99.90;;;;;;6742772;88;20200;-77
2022/01/25 00:57:26;;;;;;;16.85;9.93;;;3.00;99.90;;;;;;6743200;88;20207;-78
2022/01/25 01:07:26;;;;;;;20.60;10.15;;;3.00;99.90;;;;;;6741427;88;20334;-78
2022/01/25 01:48:14;;;;;;;21.42;10.02;;;3.30;99.90;;;;;;6744547;88;20217;-79
2022/01/25 01:58:15;;;;;;;;;;;3.30;99.90;;;;;;6745402;88;20752;-78
2022/01/25 02:08:16;;;;;;;19.00;10.65;;;3.30;99.90;;;;;;6748909;88;20076;-79
2022/01/25 02:28:41;;;;;;;18.62;10.55;;;3.40;99.90;;;;;;6745520;88;20206;-78
2022/01/25 02:38:42;;;;;;;24.67;12.10;;;3.40;99.90;;;;;;6747479;88;20653;-78
2022/01/25 02:49:00;;;;;;;18.83;11.15;;;3.30;99.90;;;;;;6747507;88;20235;-78
2022/01/25 02:59:01;;;;;;;23.73;11.55;;;3.40;99.90;;;;;;6742721;88;20599;-78
2022/01/25 03:09:03;;;;;;;17.70;10.15;;;3.50;99.90;;;;;;6742419;88;20223;-78
2022/01/25 03:19:40;;;;;;;18.73;10.40;;;3.60;99.90;;;;;;6746519;88;20305;-78
2022/01/25 03:29:28;;;;;;;20.83;11.55;;;3.50;99.90;;;;;;6743977;88;20572;-78
2022/01/25 03:39:29;;;;;;;18.20;9.63;;;3.60;99.90;;;;;;6744971;88;20210;-77
2022/01/25 03:49:49;;;;;;;20.37;11.32;;;3.40;99.90;;;;;;6740624;88;20248;-78
2022/01/25 03:59:50;;;;;;;18.27;10.95;;;3.40;99.90;;;;;;6745488;88;20271;-78
2022/01/25 04:09:51;;;;;;;19.37;10.80;;;3.30;99.90;;;;;;6745478;88;20228;-79
2022/01/25 04:20:13;;;;;;;18.77;10.63;;;3.10;99.90;;;;;;6741814;88;20274;-79
2022/01/25 04:30:13;;;;;;;22.33;10.93;;;3.10;99.90;;;;;;6741156;88;20195;-79
2022/01/25 05:00:51;;;;;;;21.67;11.57;;;2.90;99.90;;;;;;6744189;88;20644;-78
2022/01/25 05:11:03;;;;;;;28.87;11.90;;;2.90;99.90;;;;;;6740186;88;20286;-79
2022/01/25 05:31:22;;;;;;;21.60;12.07;;;2.80;99.90;;;;;;6744115;88;20215;-79
2022/01/25 05:41:28;;;;;;;25.90;12.05;;;3.00;99.90;;;;;;6746611;88;20213;-79
2022/01/25 05:51:28;;;;;;;26.70;13.07;;;2.80;99.90;;;;;;6748471;88;20188;-78
2022/01/25 06:01:29;;;;;;;23.52;12.10;;;2.90;99.90;;;;;;6743880;88;20201;-79
2022/01/25 06:11:30;;;;;;;26.40;12.40;;;2.80;99.90;;;;;;6744330;88;20207;-78
2022/01/25 06:21:30;;;;;;;24.50;13.10;;;2.70;99.90;;;;;;6739288;88;20197;-78
2022/01/25 06:31:31;;;;;;;24.70;12.30;;;2.60;99.90;;;;;;6738665;88;20604;-79
2022/01/25 06:41:34;;;;;;;21.52;11.98;;;2.80;99.90;;;;;;6739510;88;20223;-77
2022/01/25 06:51:34;;;;;;;25.85;12.50;;;2.80;99.90;;;;;;6740249;88;20221;-77
2022/01/25 07:01:35;;;;;;;23.50;12.32;;;2.80;99.90;;;;;;6739468;88;20288;-77
2022/01/25 07:11:36;;;;;;;22.65;11.70;;;2.70;99.90;;;;;;6733842;88;20210;-77
2022/01/25 07:21:36;;;;;;;25.80;13.27;;;2.90;99.90;;;;;;6742455;87;20292;-77
2022/01/25 07:31:37;;;;;;;25.30;13.07;;;2.80;99.90;;;;;;6755890;88;20666;-76
2022/01/25 07:41:38;;;;;;;21.62;11.88;;;2.90;99.90;;;;;;6749660;88;20322;-77
2022/01/25 07:51:39;;;;;;;29.98;13.40;;;2.70;99.90;;;;;;6754760;88;20209;-78
2022/01/25 08:01:40;;;;;;;24.80;13.40;;;2.70;99.90;;;;;;6753887;87;20211;-77
2022/01/25 08:11:42;;;;;;;23.87;12.40;;;2.80;99.90;;;;;;6753191;87;20243;-78
2022/01/25 08:21:43;;;;;;;27.33;12.80;;;2.90;99.90;;;;;;6751584;87;20306;-75
2022/01/25 08:31:44;;;;;;;28.90;12.98;;;3.00;99.90;;;;;;6735356;88;20173;-78
2022/01/25 08:41:44;;;;;;;27.23;13.50;;;2.90;99.90;;;;;;6734979;88;20229;-78
2022/01/25 08:51:46;;;;;;;27.15;13.30;;;2.90;99.90;;;;;;6736184;88;20256;-77
2022/01/25 09:01:47;;;;;;;24.20;12.25;;;3.10;99.90;;;;;;6736275;88;20254;-76
2022/01/25 09:11:47;;;;;;;28.98;13.80;;;3.00;99.90;;;;;;6746930;87;20192;-75
2022/01/25 09:21:48;;;;;;;30.12;13.77;;;3.00;99.90;;;;;;6749539;87;20687;-76
2022/01/25 09:31:49;;;;;;;29.08;14.13;;;3.00;99.90;;;;;;6751871;87;20235;-77
2022/01/25 09:41:50;;;;;;;29.33;11.63;;;3.10;99.90;;;;;;6756772;88;20636;-78
2022/01/25 09:51:54;;;;;;;33.17;13.05;;;3.20;99.90;;;;;;6749596;88;20233;-78
2022/01/25 10:01:55;;;;;;;30.05;13.13;;;3.10;99.90;;;;;;6753907;88;20258;-77
2022/01/25 10:11:56;;;;;;;29.35;12.05;;;3.30;99.90;;;;;;6752426;87;20200;-78
2022/01/25 10:22:00;;;;;;;32.33;12.40;;;3.20;99.90;;;;;;6751306;87;20206;-78
2022/01/25 10:32:09;;;;;;;30.67;11.90;;;3.30;99.90;;;;;;6752164;87;20255;-78
2022/01/25 10:42:10;;;;;;;33.60;11.85;;;3.40;99.90;;;;;;6756174;88;20177;-79
2022/01/25 10:52:11;;;;;;;36.67;12.93;;;3.30;99.90;;;;;;6756346;88;20216;-77
2022/01/25 11:02:11;;;;;;;35.15;12.90;;;3.30;99.90;;;;;;6753563;87;20228;-77
2022/01/25 11:12:16;;;;;;;37.13;14.87;;;3.50;99.90;;;;;;6749175;87;21063;-77
2022/01/25 11:22:19;;;;;;;32.95;12.85;;;3.60;99.90;;;;;;6748952;87;20233;-76
2022/01/25 11:32:27;;;;;;;32.85;13.80;;;3.60;99.90;;;;;;6749975;88;20258;-75
2022/01/25 11:42:34;;;;;;;42.47;16.73;;;3.60;99.90;;;;;;6748681;88;20229;-76
2022/01/25 11:52:35;;;;;;;39.00;17.45;;;3.90;99.90;;;;;;6748760;87;20203;-76
2022/01/25 12:02:38;;;;;;;36.83;16.40;;;4.00;99.90;;;;;;6744224;88;20200;-74
2022/01/25 12:12:40;;;;;;;44.63;18.30;;;4.00;99.90;;;;;;6745040;87;20176;-76
2022/01/25 12:22:42;;;;;;;41.35;18.12;;;4.10;99.90;;;;;;6751477;87;20195;-76
2022/01/25 12:33:02;;;;;;;42.47;17.87;;;4.10;99.90;;;;;;6736010;88;20264;-79
2022/01/25 12:43:22;;;;;;;37.90;16.25;;;4.00;99.90;;;;;;6736056;88;20249;-77
2022/01/25 12:53:25;;;;;;;39.35;17.52;;;4.10;99.90;;;;;;6734976;88;20232;-78
2022/01/25 13:03:53;;;;;;;37.22;16.67;;;4.20;99.90;;;;;;6734535;88;20628;-77
2022/01/25 13:14:13;;;;;;;37.78;15.95;;;4.20;99.90;;;;;;6734890;88;20189;-77
2022/01/25 13:24:18;;;;;;;32.22;14.20;;;4.20;99.90;;;;;;6736142;88;20647;-76
2022/01/25 13:34:22;;;;;;;34.17;16.15;;;4.20;99.90;;;;;;6748347;87;20209;-77
2022/01/25 13:54:42;;;;;;;31.83;15.02;;;4.20;99.90;;;;;;6748603;88;20184;-77
2022/01/25 14:04:42;;;;;;;29.75;15.00;;;4.40;99.90;;;;;;6753995;87;20211;-76
2022/01/25 14:25:10;;;;;;;31.87;15.20;;;4.40;99.90;;;;;;6749890;87;20215;-77
2022/01/25 14:35:12;;;;;;;31.52;14.82;;;4.30;99.90;;;;;;6747204;87;20236;-77
2022/01/25 14:45:20;;;;;;;27.92;14.00;;;4.40;99.90;;;;;;6752631;87;20666;-77
2022/01/25 14:55:23;;;;;;;30.62;14.02;;;4.20;99.90;;;;;;6749325;87;20196;-77
2022/01/25 15:05:24;;;;;;;35.25;15.75;;;4.20;99.90;;;;;;6740156;88;20197;-78
2022/01/25 15:15:34;;;;;;;34.00;15.50;;;4.00;99.90;;;;;;6736634;88;20693;-78
2022/01/25 15:25:35;;;;;;;29.63;14.13;;;4.30;99.90;;;;;;6740427;88;20423;-76
2022/01/25 15:35:36;;;;;;;31.08;14.75;;;4.20;99.90;;;;;;6745754;87;20236;-75
2022/01/25 15:46:00;;;;;;;34.35;15.82;;;4.20;99.90;;;;;;6750363;87;20211;-75
2022/01/25 15:56:01;;;;;;;39.40;16.10;;;4.00;99.90;;;;;;6753883;87;20303;-76
2022/01/25 16:06:01;;;;;;;38.95;16.27;;;4.00;99.90;;;;;;6744773;87;20696;-76
2022/01/25 16:16:02;;;;;;;37.55;16.08;;;3.80;99.90;;;;;;6753476;87;21020;-76
2022/01/25 16:26:03;;;;;;;35.42;16.02;;;3.60;99.90;;;;;;6747944;87;20706;-76
2022/01/25 16:36:04;;;;;;;38.92;16.85;;;3.70;99.90;;;;;;6753793;87;20672;-76
2022/01/25 16:46:04;;;;;;;41.17;17.02;;;3.60;99.90;;;;;;6754663;88;20180;-77
2022/01/25 16:56:05;;;;;;;36.38;16.60;;;3.70;99.90;;;;;;6752917;87;20184;-77
2022/01/25 17:06:06;;;;;;;40.08;16.65;;;3.80;99.90;;;;;;6752199;88;20229;-78
2022/01/25 17:16:07;;;;;;;41.80;17.02;;;3.50;99.90;;;;;;6752796;88;20266;-77
2022/01/25 17:26:07;;;;;;;39.13;16.02;;;3.60;99.90;;;;;;6737206;88;20536;-77
2022/01/25 17:36:08;;;;;;;38.63;15.93;;;3.30;99.90;;;;;;6736431;88;20244;-78
2022/01/25 17:46:08;;;;;;;42.83;15.05;;;3.40;99.90;;;;;;6734354;88;20288;-78
2022/01/25 17:56:09;;;;;;;41.30;17.02;;;3.40;99.90;;;;;;6746710;88;20233;-76
2022/01/25 18:06:09;;;;;;;39.55;16.83;;;3.60;99.90;;;;;;6738385;76;20303;-73
2022/01/25 18:16:10;;;;;;;41.72;16.77;;;3.50;99.90;;;;;;6731596;87;20209;-72
2022/01/25 18:26:19;;;;;;;48.00;19.08;;;3.70;99.90;;;;;;6740571;88;20287;-73
2022/01/25 18:36:19;;;;;;;44.90;17.92;;;3.80;99.90;;;;;;6749289;88;20206;-74
2022/01/25 18:46:20;;;;;;;43.87;16.12;;;3.80;99.90;;;;;;6740596;87;20703;-72
2022/01/25 18:56:20;;;;;;;39.58;15.27;;;3.60;99.90;;;;;;6740373;87;20234;-74
2022/01/25 19:06:21;;;;;;;43.87;16.95;;;3.60;99.90;;;;;;6742184;87;20247;-73
2022/01/25 19:16:23;;;;;;;41.10;16.87;;;3.30;99.90;;;;;;6739368;87;20529;-73
2022/01/25 19:26:24;;;;;;;41.50;16.48;;;3.60;99.90;;;;;;6734395;87;20205;-74
2022/01/25 19:36:25;;;;;;;40.80;15.90;;;3.40;99.90;;;;;;6739019;88;20241;-74
2022/01/25 19:46:26;;;;;;;45.17;17.47;;;3.40;99.90;;;;;;6737852;88;20318;-73
2022/01/25 19:56:36;;;;;;;43.70;16.90;;;3.50;99.90;;;;;;6737372;88;20614;-73
2022/01/25 20:06:36;;;;;;;44.13;17.02;;;3.40;99.90;;;;;;6737727;88;20188;-74
2022/01/25 20:16:37;;;;;;;40.80;15.25;;;3.30;99.90;;;;;;6741566;87;20746;-73
2022/01/25 20:26:48;;;;;;;38.80;16.02;;;3.30;99.90;;;;;;6740272;87;20210;-74
2022/01/25 20:36:49;;;;;;;37.63;15.15;;;3.20;99.90;;;;;;6741742;87;20164;-74
2022/01/25 20:46:49;;;;;;;39.65;14.98;;;3.30;99.90;;;;;;6741774;87;20221;-74
2022/01/25 20:56:50;;;;;;;39.88;15.73;;;3.20;99.90;;;;;;6745012;87;20188;-74
2022/01/25 21:06:54;;;;;;;41.03;15.37;;;3.20;99.90;;;;;;6746456;87;20571;-74
2022/01/25 21:16:55;;;;;;;44.08;16.42;;;3.10;99.90;;;;;;6746088;87;20615;-73
2022/01/25 21:26:58;;;;;;;40.45;14.25;;;3.00;99.90;;;;;;6746464;87;20183;-73
2022/01/25 21:36:59;;;;;;;38.45;15.40;;;2.90;99.90;;;;;;6750972;88;20359;-74
2022/01/25 21:47:00;;;;;;;43.38;15.20;;;3.20;99.90;;;;;;6744978;87;20224;-74
2022/01/25 21:57:01;;;;;;;40.28;14.50;;;3.20;99.90;;;;;;6739223;87;20301;-74
2022/01/25 22:07:08;;;;;;;37.90;14.50;;;3.20;99.90;;;;;;6736140;88;20293;-75
2022/01/25 22:17:10;;;;;;;38.70;14.15;;;3.10;99.90;;;;;;6736639;87;20316;-74
2022/01/25 22:27:12;;;;;;;41.53;15.10;;;3.20;99.90;;;;;;6739939;88;20274;-73
2022/01/25 22:37:12;;;;;;;39.80;14.95;;;3.20;99.90;;;;;;6739305;88;20205;-73
2022/01/25 22:47:14;;;;;;;42.75;15.38;;;3.20;99.90;;;;;;6740635;88;20204;-74
2022/01/25 22:57:16;;;;;;;44.00;16.23;;;3.10;99.90;;;;;;6740276;87;20691;-73
2022/01/25 23:07:19;;;;;;;45.80;16.95;;;3.10;99.90;;;;;;6742250;87;20222;-73
2022/01/25 23:17:21;;;;;;;43.90;14.63;;;3.00;99.90;;;;;;6742417;87;20200;-74
2022/01/25 23:27:23;;;;;;;47.70;14.85;;;3.10;99.90;;;;;;6747134;88;20644;-74
2022/01/25 23:37:26;;;;;;;45.85;13.38;;;2.80;99.90;;;;;;6747599;87;20247;-73
2022/01/25 23:47:32;;;;;;;40.67;12.80;;;2.50;99.90;;;;;;6748606;88;20200;-73
2022/01/25 23:57:49;;;;;;;32.95;10.60;;;2.40;99.90;;;;;;6748114;87;20204;-74
